Flugwetter

[source: ADDS]
METAR
LOWL 220250Z AUTO 25002KT 9999 NCD 10/09 Q1023 =
TAF
TAF LOWL 212315Z 2200/2224 VRB02KT CAVOK TX23/2214Z TN10/2204Z TEMPO 2210/2217 29007KT 9999 FEW050 =